sensor_id;sensor_type;location;lat;lon;timestamp;temperature;humidity
29341;DHT22;16337;59.536;13.468;2023-08-31T00:00:43;11.90;99.90
29341;DHT22;16337;59.536;13.468;2023-08-31T00:03:12;12.00;99.90
29341;DHT22;16337;59.536;13.468;2023-08-31T00:05:41;12.00;99.90
29341;DHT22;16337;59.536;13.468;2023-08-31T00:08:07;12.00;99.90
29341;DHT22;16337;59.536;13.468;2023-08-31T00:10:34;11.90;99.90
29341;DHT22;16337;59.536;13.468;2023-08-31T00:13:02;11.90;99.90
29341;DHT22;16337;59.536;13.468;2023-08-31T00:15:29;11.90;99.90
29341;DHT22;16337;59.536;13.468;2023-08-31T00:17:58;11.90;99.90
29341;DHT22;16337;59.536;13.468;2023-08-31T00:20:24;11.90;99.90
29341;DHT22;16337;59.536;13.468;2023-08-31T00:22:50;11.80;99.90
29341;DHT22;16337;59.536;13.468;2023-08-31T00:25:16;11.80;99.90
29341;DHT22;16337;59.536;13.468;2023-08-31T00:27:41;11.80;99.90
29341;DHT22;16337;59.536;13.468;2023-08-31T00:30:08;11.70;99.90
29341;DHT22;16337;59.536;13.468;2023-08-31T00:32:34;11.70;99.90
29341;DHT22;16337;59.536;13.468;2023-08-31T00:35:00;11.70;99.90
29341;DHT22;16337;59.536;13.468;2023-08-31T00:37:26;11.60;99.90
29341;DHT22;16337;59.536;13.468;2023-08-31T00:39:51;11.60;99.90
29341;DHT22;16337;59.536;13.468;2023-08-31T00:42:18;11.60;99.90
29341;DHT22;16337;59.536;13.468;2023-08-31T00:44:44;11.50;99.90
29341;DHT22;16337;59.536;13.468;2023-08-31T00:47:12;11.50;99.90
29341;DHT22;16337;59.536;13.468;2023-08-31T00:49:39;11.50;99.90
29341;DHT22;16337;59.536;13.468;2023-08-31T00:52:08;11.50;99.90
29341;DHT22;16337;59.536;13.468;2023-08-31T00:54:35;11.40;99.90
29341;DHT22;16337;59.536;13.468;2023-08-31T00:57:00;11.40;99.90
29341;DHT22;16337;59.536;13.468;2023-08-31T00:59:26;11.40;99.90
29341;DHT22;16337;59.536;13.468;2023-08-31T01:05:43;11.40;99.90
29341;DHT22;16337;59.536;13.468;2023-08-31T01:07:49;11.40;99.90
29341;DHT22;16337;59.536;13.468;2023-08-31T01:11:00;11.50;99.90
29341;DHT22;16337;59.536;13.468;2023-08-31T01:13:23;11.50;99.90
29341;DHT22;16337;59.536;13.468;2023-08-31T01:15:53;11.50;99.90
29341;DHT22;16337;59.536;13.468;2023-08-31T01:18:22;11.50;99.90
29341;DHT22;16337;59.536;13.468;2023-08-31T01:23:55;11.50;99.90
29341;DHT22;16337;59.536;13.468;2023-08-31T01:26:22;11.50;99.90
29341;DHT22;16337;59.536;13.468;2023-08-31T01:28:48;11.50;99.90
29341;DHT22;16337;59.536;13.468;2023-08-31T01:31:15;11.40;99.90
29341;DHT22;16337;59.536;13.468;2023-08-31T01:33:41;11.40;99.90
29341;DHT22;16337;59.536;13.468;2023-08-31T01:36:27;11.40;99.90
29341;DHT22;16337;59.536;13.468;2023-08-31T01:39:17;11.40;99.90
29341;DHT22;16337;59.536;13.468;2023-08-31T01:41:55;11.30;99.90
29341;DHT22;16337;59.536;13.468;2023-08-31T01:44:21;11.30;99.90
29341;DHT22;16337;59.536;13.468;2023-08-31T01:46:52;11.30;99.90
29341;DHT22;16337;59.536;13.468;2023-08-31T01:49:17;11.30;99.90
29341;DHT22;16337;59.536;13.468;2023-08-31T01:51:44;11.30;99.90
29341;DHT22;16337;59.536;13.468;2023-08-31T01:54:10;11.30;99.90
29341;DHT22;16337;59.536;13.468;2023-08-31T01:56:36;11.40;99.90
29341;DHT22;16337;59.536;13.468;2023-08-31T01:59:01;11.40;99.90
29341;DHT22;16337;59.536;13.468;2023-08-31T02:01:27;11.40;99.90
29341;DHT22;16337;59.536;13.468;2023-08-31T02:03:54;11.40;99.90
29341;DHT22;16337;59.536;13.468;2023-08-31T02:06:20;11.50;99.90
29341;DHT22;16337;59.536;13.468;2023-08-31T02:08:46;11.50;99.90
29341;DHT22;16337;59.536;13.468;2023-08-31T02:11:13;11.50;99.90
29341;DHT22;16337;59.536;13.468;2023-08-31T02:13:39;11.50;99.90
29341;DHT22;16337;59.536;13.468;2023-08-31T02:16:05;11.50;99.90
29341;DHT22;16337;59.536;13.468;2023-08-31T02:18:31;11.50;99.90
29341;DHT22;16337;59.536;13.468;2023-08-31T02:20:57;11.50;99.90
29341;DHT22;16337;59.536;13.468;2023-08-31T02:23:23;11.50;99.90
29341;DHT22;16337;59.536;13.468;2023-08-31T02:25:48;11.60;99.90
29341;DHT22;16337;59.536;13.468;2023-08-31T02:28:14;11.60;99.90
29341;DHT22;16337;59.536;13.468;2023-08-31T02:30:40;11.60;99.90
29341;DHT22;16337;59.536;13.468;2023-08-31T02:33:06;11.60;99.90
29341;DHT22;16337;59.536;13.468;2023-08-31T02:35:32;11.60;99.90
29341;DHT22;16337;59.536;13.468;2023-08-31T02:37:58;11.60;99.90
29341;DHT22;16337;59.536;13.468;2023-08-31T02:40:23;11.60;99.90
29341;DHT22;16337;59.536;13.468;2023-08-31T02:42:52;11.60;99.90
29341;DHT22;16337;59.536;13.468;2023-08-31T02:45:18;11.60;99.90
29341;DHT22;16337;59.536;13.468;2023-08-31T02:47:44;11.60;99.90
29341;DHT22;16337;59.536;13.468;2023-08-31T02:50:09;11.60;99.90
29341;DHT22;16337;59.536;13.468;2023-08-31T02:52:35;11.60;99.90
29341;DHT22;16337;59.536;13.468;2023-08-31T02:55:01;11.60;99.90
29341;DHT22;16337;59.536;13.468;2023-08-31T02:57:26;11.60;99.90
29341;DHT22;16337;59.536;13.468;2023-08-31T02:59:52;11.60;99.90
29341;DHT22;16337;59.536;13.468;2023-08-31T03:02:18;11.60;99.90
29341;DHT22;16337;59.536;13.468;2023-08-31T03:04:44;11.60;99.90
29341;DHT22;16337;59.536;13.468;2023-08-31T03:07:09;11.60;99.90
29341;DHT22;16337;59.536;13.468;2023-08-31T03:09:39;11.70;99.90
29341;DHT22;16337;59.536;13.468;2023-08-31T03:12:05;11.70;99.90
29341;DHT22;16337;59.536;13.468;2023-08-31T03:14:31;11.70;99.90
29341;DHT22;16337;59.536;13.468;2023-08-31T03:16:57;11.70;99.90
29341;DHT22;16337;59.536;13.468;2023-08-31T03:19:22;11.70;99.90
29341;DHT22;16337;59.536;13.468;2023-08-31T03:21:49;11.70;99.90
29341;DHT22;16337;59.536;13.468;2023-08-31T03:24:15;11.70;99.90
29341;DHT22;16337;59.536;13.468;2023-08-31T03:26:40;11.70;99.90
29341;DHT22;16337;59.536;13.468;2023-08-31T03:29:06;11.70;99.90
29341;DHT22;16337;59.536;13.468;2023-08-31T03:31:32;11.70;99.90
29341;DHT22;16337;59.536;13.468;2023-08-31T03:33:57;11.60;99.90
29341;DHT22;16337;59.536;13.468;2023-08-31T03:36:23;11.60;99.90
29341;DHT22;16337;59.536;13.468;2023-08-31T03:38:49;11.60;99.90
29341;DHT22;16337;59.536;13.468;2023-08-31T03:41:15;11.60;99.90
29341;DHT22;16337;59.536;13.468;2023-08-31T03:43:41;11.60;99.90
29341;DHT22;16337;59.536;13.468;2023-08-31T03:46:07;11.60;99.90
29341;DHT22;16337;59.536;13.468;2023-08-31T03:48:32;11.60;99.90
29341;DHT22;16337;59.536;13.468;2023-08-31T03:50:58;11.50;99.90
29341;DHT22;16337;59.536;13.468;2023-08-31T03:53:23;11.50;99.90
29341;DHT22;16337;59.536;13.468;2023-08-31T03:55:49;11.50;99.90
29341;DHT22;16337;59.536;13.468;2023-08-31T03:58:15;11.40;99.90
29341;DHT22;16337;59.536;13.468;2023-08-31T04:00:42;11.30;99.90
29341;DHT22;16337;59.536;13.468;2023-08-31T04:03:08;11.30;99.90
29341;DHT22;16337;59.536;13.468;2023-08-31T04:05:34;11.20;99.90
29341;DHT22;16337;59.536;13.468;2023-08-31T04:08:01;11.20;99.90
29341;DHT22;16337;59.536;13.468;2023-08-31T04:10:27;11.20;99.90
29341;DHT22;16337;59.536;13.468;2023-08-31T04:12:53;11.20;99.90
29341;DHT22;16337;59.536;13.468;2023-08-31T04:15:18;11.20;99.90
29341;DHT22;16337;59.536;13.468;2023-08-31T04:17:44;11.20;99.90
29341;DHT22;16337;59.536;13.468;2023-08-31T04:20:11;11.20;99.90
29341;DHT22;16337;59.536;13.468;2023-08-31T04:22:36;11.30;99.90
29341;DHT22;16337;59.536;13.468;2023-08-31T04:25:03;11.30;99.90
29341;DHT22;16337;59.536;13.468;2023-08-31T04:27:29;11.50;99.90
29341;DHT22;16337;59.536;13.468;2023-08-31T04:30:02;11.70;99.90
29341;DHT22;16337;59.536;13.468;2023-08-31T04:32:28;11.80;99.90
29341;DHT22;16337;59.536;13.468;2023-08-31T04:34:53;11.90;99.90
29341;DHT22;16337;59.536;13.468;2023-08-31T04:37:20;12.00;99.90
29341;DHT22;16337;59.536;13.468;2023-08-31T04:39:46;12.00;99.90
29341;DHT22;16337;59.536;13.468;2023-08-31T04:42:12;12.10;99.90
29341;DHT22;16337;59.536;13.468;2023-08-31T04:44:38;12.10;99.90
29341;DHT22;16337;59.536;13.468;2023-08-31T04:47:03;12.20;99.90
29341;DHT22;16337;59.536;13.468;2023-08-31T04:49:29;12.30;99.90
29341;DHT22;16337;59.536;13.468;2023-08-31T04:51:56;12.30;99.90
29341;DHT22;16337;59.536;13.468;2023-08-31T04:54:22;12.30;99.90
29341;DHT22;16337;59.536;13.468;2023-08-31T04:56:47;12.40;99.90
29341;DHT22;16337;59.536;13.468;2023-08-31T04:59:13;12.40;99.90
29341;DHT22;16337;59.536;13.468;2023-08-31T05:01:39;12.40;99.90
29341;DHT22;16337;59.536;13.468;2023-08-31T05:04:05;12.40;99.90
29341;DHT22;16337;59.536;13.468;2023-08-31T05:06:31;12.50;99.90
29341;DHT22;16337;59.536;13.468;2023-08-31T05:08:57;12.50;99.90
29341;DHT22;16337;59.536;13.468;2023-08-31T05:11:23;12.50;99.90
29341;DHT22;16337;59.536;13.468;2023-08-31T05:13:48;12.60;99.90
29341;DHT22;16337;59.536;13.468;2023-08-31T05:16:14;12.60;99.90
29341;DHT22;16337;59.536;13.468;2023-08-31T05:18:40;12.80;99.90
29341;DHT22;16337;59.536;13.468;2023-08-31T05:21:06;12.90;99.90
29341;DHT22;16337;59.536;13.468;2023-08-31T05:23:32;13.00;99.90
29341;DHT22;16337;59.536;13.468;2023-08-31T05:25:58;13.10;99.90
29341;DHT22;16337;59.536;13.468;2023-08-31T05:28:24;13.20;99.90
29341;DHT22;16337;59.536;13.468;2023-08-31T05:30:51;13.30;99.90
29341;DHT22;16337;59.536;13.468;2023-08-31T05:33:17;13.30;99.90
29341;DHT22;16337;59.536;13.468;2023-08-31T05:35:43;13.30;99.90
29341;DHT22;16337;59.536;13.468;2023-08-31T05:38:09;13.40;99.90
29341;DHT22;16337;59.536;13.468;2023-08-31T05:40:35;13.40;99.90
29341;DHT22;16337;59.536;13.468;2023-08-31T05:43:01;13.50;99.90
29341;DHT22;16337;59.536;13.468;2023-08-31T05:45:32;13.50;99.90
29341;DHT22;16337;59.536;13.468;2023-08-31T05:47:58;13.60;99.90
29341;DHT22;16337;59.536;13.468;2023-08-31T05:50:23;13.60;99.90
29341;DHT22;16337;59.536;13.468;2023-08-31T05:52:49;13.70;99.90
29341;DHT22;16337;59.536;13.468;2023-08-31T05:55:15;13.70;99.90
29341;DHT22;16337;59.536;13.468;2023-08-31T05:57:40;13.80;99.90
29341;DHT22;16337;59.536;13.468;2023-08-31T06:00:06;13.90;99.90
29341;DHT22;16337;59.536;13.468;2023-08-31T06:02:33;13.90;99.90
29341;DHT22;16337;59.536;13.468;2023-08-31T06:05:01;14.10;99.90
29341;DHT22;16337;59.536;13.468;2023-08-31T06:07:27;14.10;99.90
29341;DHT22;16337;59.536;13.468;2023-08-31T06:09:54;14.20;99.90
29341;DHT22;16337;59.536;13.468;2023-08-31T06:12:20;14.30;99.90
29341;DHT22;16337;59.536;13.468;2023-08-31T06:14:46;14.40;99.90
29341;DHT22;16337;59.536;13.468;2023-08-31T06:17:11;14.50;99.90
29341;DHT22;16337;59.536;13.468;2023-08-31T06:19:39;14.50;99.90
29341;DHT22;16337;59.536;13.468;2023-08-31T06:22:04;14.70;99.90
29341;DHT22;16337;59.536;13.468;2023-08-31T06:24:30;14.70;99.90
29341;DHT22;16337;59.536;13.468;2023-08-31T06:26:57;14.80;99.90
29341;DHT22;16337;59.536;13.468;2023-08-31T06:29:23;14.90;99.90
29341;DHT22;16337;59.536;13.468;2023-08-31T06:31:49;15.00;99.90
29341;DHT22;16337;59.536;13.468;2023-08-31T06:34:15;15.10;99.90
29341;DHT22;16337;59.536;13.468;2023-08-31T06:36:40;15.10;99.90
29341;DHT22;16337;59.536;13.468;2023-08-31T06:39:07;15.10;99.90
29341;DHT22;16337;59.536;13.468;2023-08-31T06:41:32;15.20;99.90
29341;DHT22;16337;59.536;13.468;2023-08-31T06:43:59;15.20;99.90
29341;DHT22;16337;59.536;13.468;2023-08-31T06:46:24;15.30;99.90
29341;DHT22;16337;59.536;13.468;2023-08-31T06:48:51;15.30;99.90
29341;DHT22;16337;59.536;13.468;2023-08-31T06:51:18;15.30;99.90
29341;DHT22;16337;59.536;13.468;2023-08-31T06:53:43;15.40;99.90
29341;DHT22;16337;59.536;13.468;2023-08-31T06:56:12;15.40;99.90
29341;DHT22;16337;59.536;13.468;2023-08-31T06:58:38;15.50;99.90
29341;DHT22;16337;59.536;13.468;2023-08-31T07:01:07;15.60;99.90
29341;DHT22;16337;59.536;13.468;2023-08-31T07:03:32;15.70;99.90
29341;DHT22;16337;59.536;13.468;2023-08-31T07:05:59;15.80;99.90
29341;DHT22;16337;59.536;13.468;2023-08-31T07:08:25;15.80;99.90
29341;DHT22;16337;59.536;13.468;2023-08-31T07:10:51;15.80;99.90
29341;DHT22;16337;59.536;13.468;2023-08-31T07:13:17;15.80;99.90
29341;DHT22;16337;59.536;13.468;2023-08-31T07:15:43;15.90;99.90
29341;DHT22;16337;59.536;13.468;2023-08-31T07:18:09;15.90;99.90
29341;DHT22;16337;59.536;13.468;2023-08-31T07:20:35;16.00;99.90
29341;DHT22;16337;59.536;13.468;2023-08-31T07:23:00;16.20;99.90
29341;DHT22;16337;59.536;13.468;2023-08-31T07:25:26;16.30;99.90
29341;DHT22;16337;59.536;13.468;2023-08-31T07:27:53;16.60;99.90
29341;DHT22;16337;59.536;13.468;2023-08-31T07:30:18;16.90;99.90
29341;DHT22;16337;59.536;13.468;2023-08-31T07:32:44;17.10;99.90
29341;DHT22;16337;59.536;13.468;2023-08-31T07:35:10;17.30;99.90
29341;DHT22;16337;59.536;13.468;2023-08-31T07:37:35;17.30;99.90
29341;DHT22;16337;59.536;13.468;2023-08-31T07:40:03;17.30;99.90
29341;DHT22;16337;59.536;13.468;2023-08-31T07:42:29;17.20;99.90
29341;DHT22;16337;59.536;13.468;2023-08-31T07:44:55;17.20;99.90
29341;DHT22;16337;59.536;13.468;2023-08-31T07:47:21;17.20;99.90
29341;DHT22;16337;59.536;13.468;2023-08-31T07:49:46;17.40;99.90
29341;DHT22;16337;59.536;13.468;2023-08-31T07:52:12;17.40;99.90
29341;DHT22;16337;59.536;13.468;2023-08-31T07:54:38;17.30;99.90
29341;DHT22;16337;59.536;13.468;2023-08-31T07:57:03;17.40;99.90
29341;DHT22;16337;59.536;13.468;2023-08-31T07:59:29;17.60;99.90
29341;DHT22;16337;59.536;13.468;2023-08-31T08:01:55;18.00;99.90
29341;DHT22;16337;59.536;13.468;2023-08-31T08:04:21;18.20;99.90
29341;DHT22;16337;59.536;13.468;2023-08-31T08:06:49;18.10;99.90
29341;DHT22;16337;59.536;13.468;2023-08-31T08:09:15;17.90;99.90
29341;DHT22;16337;59.536;13.468;2023-08-31T08:11:41;17.90;99.90
29341;DHT22;16337;59.536;13.468;2023-08-31T08:14:07;17.80;99.90
29341;DHT22;16337;59.536;13.468;2023-08-31T08:16:33;17.70;99.90
29341;DHT22;16337;59.536;13.468;2023-08-31T08:19:01;17.90;99.90
29341;DHT22;16337;59.536;13.468;2023-08-31T08:21:26;18.20;99.90
29341;DHT22;16337;59.536;13.468;2023-08-31T08:23:52;18.50;99.90
29341;DHT22;16337;59.536;13.468;2023-08-31T08:26:18;18.80;99.90
29341;DHT22;16337;59.536;13.468;2023-08-31T08:28:44;19.00;99.90
29341;DHT22;16337;59.536;13.468;2023-08-31T08:31:10;19.40;99.90
29341;DHT22;16337;59.536;13.468;2023-08-31T08:33:35;20.00;99.90
29341;DHT22;16337;59.536;13.468;2023-08-31T08:36:01;20.50;99.90
29341;DHT22;16337;59.536;13.468;2023-08-31T08:38:27;20.90;99.90
29341;DHT22;16337;59.536;13.468;2023-08-31T08:40:53;21.30;99.90
29341;DHT22;16337;59.536;13.468;2023-08-31T08:43:25;21.50;99.90
29341;DHT22;16337;59.536;13.468;2023-08-31T08:45:52;21.60;99.90
29341;DHT22;16337;59.536;13.468;2023-08-31T08:48:18;21.80;99.90
29341;DHT22;16337;59.536;13.468;2023-08-31T08:50:45;22.10;99.90
29341;DHT22;16337;59.536;13.468;2023-08-31T08:53:11;22.20;99.90
29341;DHT22;16337;59.536;13.468;2023-08-31T08:55:41;22.50;99.90
29341;DHT22;16337;59.536;13.468;2023-08-31T08:58:07;22.70;99.90
29341;DHT22;16337;59.536;13.468;2023-08-31T09:00:33;22.50;99.90
29341;DHT22;16337;59.536;13.468;2023-08-31T09:03:01;22.50;99.90
29341;DHT22;16337;59.536;13.468;2023-08-31T09:05:34;22.70;99.90
29341;DHT22;16337;59.536;13.468;2023-08-31T09:08:09;22.50;99.90
29341;DHT22;16337;59.536;13.468;2023-08-31T09:10:42;22.40;99.90
29341;DHT22;16337;59.536;13.468;2023-08-31T09:13:13;22.20;99.90
29341;DHT22;16337;59.536;13.468;2023-08-31T09:15:45;22.60;99.90
29341;DHT22;16337;59.536;13.468;2023-08-31T09:18:24;23.00;99.90
29341;DHT22;16337;59.536;13.468;2023-08-31T09:20:50;23.20;99.90
29341;DHT22;16337;59.536;13.468;2023-08-31T09:23:16;23.50;99.90
29341;DHT22;16337;59.536;13.468;2023-08-31T09:26:00;23.50;99.90
29341;DHT22;16337;59.536;13.468;2023-08-31T09:28:27;23.50;99.90
29341;DHT22;16337;59.536;13.468;2023-08-31T09:31:07;23.60;99.90
29341;DHT22;16337;59.536;13.468;2023-08-31T09:33:34;23.60;99.90
29341;DHT22;16337;59.536;13.468;2023-08-31T09:36:00;23.50;99.90
29341;DHT22;16337;59.536;13.468;2023-08-31T09:38:27;23.80;99.90
29341;DHT22;16337;59.536;13.468;2023-08-31T09:41:04;24.20;99.90
29341;DHT22;16337;59.536;13.468;2023-08-31T09:43:30;24.40;99.90
29341;DHT22;16337;59.536;13.468;2023-08-31T09:45:55;24.80;99.90
29341;DHT22;16337;59.536;13.468;2023-08-31T09:48:22;25.10;99.90
29341;DHT22;16337;59.536;13.468;2023-08-31T09:50:48;24.80;99.90
29341;DHT22;16337;59.536;13.468;2023-08-31T09:53:16;24.70;99.90
29341;DHT22;16337;59.536;13.468;2023-08-31T09:55:43;24.40;99.90
29341;DHT22;16337;59.536;13.468;2023-08-31T09:58:09;24.00;99.90
29341;DHT22;16337;59.536;13.468;2023-08-31T10:00:36;23.80;99.90
29341;DHT22;16337;59.536;13.468;2023-08-31T10:03:04;23.70;99.90
29341;DHT22;16337;59.536;13.468;2023-08-31T10:05:30;23.90;99.90
29341;DHT22;16337;59.536;13.468;2023-08-31T10:07:58;24.10;99.90
29341;DHT22;16337;59.536;13.468;2023-08-31T10:10:24;24.40;99.90
29341;DHT22;16337;59.536;13.468;2023-08-31T10:12:50;24.60;99.90
29341;DHT22;16337;59.536;13.468;2023-08-31T10:15:17;24.70;99.90
29341;DHT22;16337;59.536;13.468;2023-08-31T10:17:44;24.60;99.90
29341;DHT22;16337;59.536;13.468;2023-08-31T10:20:12;25.10;99.90
29341;DHT22;16337;59.536;13.468;2023-08-31T10:22:38;25.40;99.90
29341;DHT22;16337;59.536;13.468;2023-08-31T10:25:06;25.50;99.90
29341;DHT22;16337;59.536;13.468;2023-08-31T10:27:41;25.70;99.90
29341;DHT22;16337;59.536;13.468;2023-08-31T10:35:52;24.90;99.90
29341;DHT22;16337;59.536;13.468;2023-08-31T10:38:30;24.90;99.90
29341;DHT22;16337;59.536;13.468;2023-08-31T10:41:20;24.90;99.90
29341;DHT22;16337;59.536;13.468;2023-08-31T10:43:56;25.30;99.90
29341;DHT22;16337;59.536;13.468;2023-08-31T10:46:31;25.10;99.90
29341;DHT22;16337;59.536;13.468;2023-08-31T10:51:36;24.60;99.90
29341;DHT22;16337;59.536;13.468;2023-08-31T10:54:11;24.60;99.90
29341;DHT22;16337;59.536;13.468;2023-08-31T10:57:04;24.80;99.90
29341;DHT22;16337;59.536;13.468;2023-08-31T11:02:26;24.20;99.90
29341;DHT22;16337;59.536;13.468;2023-08-31T11:07:24;25.10;99.90
29341;DHT22;16337;59.536;13.468;2023-08-31T11:09:49;25.90;99.90
29341;DHT22;16337;59.536;13.468;2023-08-31T11:12:15;26.10;99.90
29341;DHT22;16337;59.536;13.468;2023-08-31T11:14:41;25.80;99.90
29341;DHT22;16337;59.536;13.468;2023-08-31T11:17:07;25.30;99.90
29341;DHT22;16337;59.536;13.468;2023-08-31T11:19:34;25.80;99.90
29341;DHT22;16337;59.536;13.468;2023-08-31T11:22:03;25.80;99.90
29341;DHT22;16337;59.536;13.468;2023-08-31T11:24:33;26.20;99.90
29341;DHT22;16337;59.536;13.468;2023-08-31T11:26:59;26.50;99.90
29341;DHT22;16337;59.536;13.468;2023-08-31T11:29:25;26.50;99.90
29341;DHT22;16337;59.536;13.468;2023-08-31T11:31:50;26.60;99.90
29341;DHT22;16337;59.536;13.468;2023-08-31T11:34:17;27.00;99.90
29341;DHT22;16337;59.536;13.468;2023-08-31T11:36:44;26.80;99.90
29341;DHT22;16337;59.536;13.468;2023-08-31T11:39:14;25.60;99.90
29341;DHT22;16337;59.536;13.468;2023-08-31T11:41:41;24.30;99.90
29341;DHT22;16337;59.536;13.468;2023-08-31T11:44:08;23.50;99.90
29341;DHT22;16337;59.536;13.468;2023-08-31T11:46:36;22.70;99.90
29341;DHT22;16337;59.536;13.468;2023-08-31T11:49:02;22.10;99.90
29341;DHT22;16337;59.536;13.468;2023-08-31T11:51:30;21.80;99.90
29341;DHT22;16337;59.536;13.468;2023-08-31T11:53:57;22.00;99.90
29341;DHT22;16337;59.536;13.468;2023-08-31T11:56:25;21.90;99.90
29341;DHT22;16337;59.536;13.468;2023-08-31T11:58:51;21.70;99.90
29341;DHT22;16337;59.536;13.468;2023-08-31T12:01:21;21.30;99.90
29341;DHT22;16337;59.536;13.468;2023-08-31T12:03:47;21.20;99.90
29341;DHT22;16337;59.536;13.468;2023-08-31T12:06:17;21.10;99.90
29341;DHT22;16337;59.536;13.468;2023-08-31T12:08:44;21.10;99.90
29341;DHT22;16337;59.536;13.468;2023-08-31T12:11:09;20.70;99.90
29341;DHT22;16337;59.536;13.468;2023-08-31T12:13:35;20.30;99.90
29341;DHT22;16337;59.536;13.468;2023-08-31T12:16:01;20.90;99.90
29341;DHT22;16337;59.536;13.468;2023-08-31T12:18:30;21.90;99.90
29341;DHT22;16337;59.536;13.468;2023-08-31T12:20:57;22.70;99.90
29341;DHT22;16337;59.536;13.468;2023-08-31T12:23:23;23.50;99.90
29341;DHT22;16337;59.536;13.468;2023-08-31T12:25:53;24.20;99.90
29341;DHT22;16337;59.536;13.468;2023-08-31T12:28:20;24.60;99.90
29341;DHT22;16337;59.536;13.468;2023-08-31T12:30:52;24.40;99.90
29341;DHT22;16337;59.536;13.468;2023-08-31T12:33:18;24.50;99.90
29341;DHT22;16337;59.536;13.468;2023-08-31T12:35:44;24.50;99.90
29341;DHT22;16337;59.536;13.468;2023-08-31T12:38:10;24.40;99.90
29341;DHT22;16337;59.536;13.468;2023-08-31T12:40:36;24.40;99.90
29341;DHT22;16337;59.536;13.468;2023-08-31T12:43:04;24.00;99.90
29341;DHT22;16337;59.536;13.468;2023-08-31T12:45:30;23.50;99.90
29341;DHT22;16337;59.536;13.468;2023-08-31T12:47:55;23.40;99.90
29341;DHT22;16337;59.536;13.468;2023-08-31T12:50:21;23.40;99.90
29341;DHT22;16337;59.536;13.468;2023-08-31T12:52:47;23.50;99.90
29341;DHT22;16337;59.536;13.468;2023-08-31T12:55:13;23.20;99.90
29341;DHT22;16337;59.536;13.468;2023-08-31T12:57:40;23.10;99.90
29341;DHT22;16337;59.536;13.468;2023-08-31T13:00:07;23.50;99.90
29341;DHT22;16337;59.536;13.468;2023-08-31T13:02:42;23.30;99.90
29341;DHT22;16337;59.536;13.468;2023-08-31T13:05:10;23.10;99.90
29341;DHT22;16337;59.536;13.468;2023-08-31T13:07:36;23.00;99.90
29341;DHT22;16337;59.536;13.468;2023-08-31T13:10:03;22.90;99.90
29341;DHT22;16337;59.536;13.468;2023-08-31T13:12:33;22.90;99.90
29341;DHT22;16337;59.536;13.468;2023-08-31T13:14:59;23.10;99.90
29341;DHT22;16337;59.536;13.468;2023-08-31T13:17:25;23.00;99.70
29341;DHT22;16337;59.536;13.468;2023-08-31T13:19:55;22.90;98.30
29341;DHT22;16337;59.536;13.468;2023-08-31T13:22:21;22.80;99.90
29341;DHT22;16337;59.536;13.468;2023-08-31T13:24:47;22.50;99.90
29341;DHT22;16337;59.536;13.468;2023-08-31T13:27:13;22.40;99.90
29341;DHT22;16337;59.536;13.468;2023-08-31T13:29:39;22.50;99.90
29341;DHT22;16337;59.536;13.468;2023-08-31T13:32:05;22.70;99.90
29341;DHT22;16337;59.536;13.468;2023-08-31T13:34:33;22.70;99.90
29341;DHT22;16337;59.536;13.468;2023-08-31T13:36:58;22.90;99.90
29341;DHT22;16337;59.536;13.468;2023-08-31T13:39:25;23.00;99.90
29341;DHT22;16337;59.536;13.468;2023-08-31T13:41:51;22.90;99.90
29341;DHT22;16337;59.536;13.468;2023-08-31T13:44:19;22.90;99.90
29341;DHT22;16337;59.536;13.468;2023-08-31T13:46:45;22.90;99.90
29341;DHT22;16337;59.536;13.468;2023-08-31T13:49:11;22.80;99.90
29341;DHT22;16337;59.536;13.468;2023-08-31T13:51:37;22.90;99.90
29341;DHT22;16337;59.536;13.468;2023-08-31T13:54:03;23.10;99.90
29341;DHT22;16337;59.536;13.468;2023-08-31T13:56:29;23.20;99.90
29341;DHT22;16337;59.536;13.468;2023-08-31T13:58:55;23.00;99.90
29341;DHT22;16337;59.536;13.468;2023-08-31T14:01:20;23.00;99.90
29341;DHT22;16337;59.536;13.468;2023-08-31T14:03:46;22.60;99.90
29341;DHT22;16337;59.536;13.468;2023-08-31T14:06:12;22.30;99.90
29341;DHT22;16337;59.536;13.468;2023-08-31T14:08:40;22.10;99.90
29341;DHT22;16337;59.536;13.468;2023-08-31T14:11:06;21.90;99.90
29341;DHT22;16337;59.536;13.468;2023-08-31T14:13:31;21.80;99.90
29341;DHT22;16337;59.536;13.468;2023-08-31T14:15:57;21.70;99.90
29341;DHT22;16337;59.536;13.468;2023-08-31T14:18:24;21.80;99.90
29341;DHT22;16337;59.536;13.468;2023-08-31T14:20:51;22.00;99.90
29341;DHT22;16337;59.536;13.468;2023-08-31T14:23:17;21.90;99.90
29341;DHT22;16337;59.536;13.468;2023-08-31T14:25:42;21.60;99.90
29341;DHT22;16337;59.536;13.468;2023-08-31T14:28:08;21.50;99.90
29341;DHT22;16337;59.536;13.468;2023-08-31T14:30:36;21.30;99.90
29341;DHT22;16337;59.536;13.468;2023-08-31T14:33:02;21.20;99.90
29341;DHT22;16337;59.536;13.468;2023-08-31T14:35:28;21.10;99.90
29341;DHT22;16337;59.536;13.468;2023-08-31T14:37:54;20.90;99.90
29341;DHT22;16337;59.536;13.468;2023-08-31T14:40:19;20.70;99.90
29341;DHT22;16337;59.536;13.468;2023-08-31T14:42:45;20.90;99.90
29341;DHT22;16337;59.536;13.468;2023-08-31T14:45:11;21.00;99.90
29341;DHT22;16337;59.536;13.468;2023-08-31T14:47:36;20.90;99.90
29341;DHT22;16337;59.536;13.468;2023-08-31T14:50:02;20.90;99.90
29341;DHT22;16337;59.536;13.468;2023-08-31T14:52:30;20.80;99.90
29341;DHT22;16337;59.536;13.468;2023-08-31T14:54:56;20.80;99.90
29341;DHT22;16337;59.536;13.468;2023-08-31T14:57:21;20.80;99.90
29341;DHT22;16337;59.536;13.468;2023-08-31T14:59:47;20.80;99.90
29341;DHT22;16337;59.536;13.468;2023-08-31T15:02:13;21.00;99.90
29341;DHT22;16337;59.536;13.468;2023-08-31T15:04:41;21.00;99.90
29341;DHT22;16337;59.536;13.468;2023-08-31T15:07:06;21.00;99.90
29341;DHT22;16337;59.536;13.468;2023-08-31T15:09:32;20.90;99.90
29341;DHT22;16337;59.536;13.468;2023-08-31T15:11:58;21.10;99.90
29341;DHT22;16337;59.536;13.468;2023-08-31T15:14:24;21.30;99.90
29341;DHT22;16337;59.536;13.468;2023-08-31T15:16:49;21.20;99.90
29341;DHT22;16337;59.536;13.468;2023-08-31T15:19:15;21.00;99.90
29341;DHT22;16337;59.536;13.468;2023-08-31T15:21:41;20.60;99.90
29341;DHT22;16337;59.536;13.468;2023-08-31T15:24:06;20.50;99.90
29341;DHT22;16337;59.536;13.468;2023-08-31T15:26:33;20.30;99.90
29341;DHT22;16337;59.536;13.468;2023-08-31T15:28:59;20.20;99.90
29341;DHT22;16337;59.536;13.468;2023-08-31T15:31:28;20.20;99.90
29341;DHT22;16337;59.536;13.468;2023-08-31T15:33:53;20.10;99.90